Historique des mesures à Cassis (13260), France
Quotidien Résumé Juin 7, 2018 Unités:  Métrique    US   Métrique/US
« Précédent (Jour)
Suivant (Jour) »
Quotidien Hebdomadaire Mensuel Annuel Période au choix
  Maximum: Minimum: Moyenne:
Température: TemperatureC °C 18.4 °C 18.7 °C
Point de rosée: DewpointC °C 15.6 °C 15.9 °C
Humidité: Humidity % 77 % 80 %
Vitesse du vent: 0 km/h 0 km/h 0.3 km/h
Rafales: 0 km/h - -
Vent:- - South
Pression: PressurehPa hPa 1011.3 hPa -
Précipitations: 8.4 mm    
Historical Graphs
 
 
Mesures pour : Juin 7, 2018
Heure Temperature Point de rosée Pression Vent Vitesse du vent Rafales Humidité Pluie (par heure) Conditions
TemperatureC °C DewpointC °C PressurehPa hPa Calm     Humidity % HourlyPrecipMM mm SoftwareType W/m2
00:10 20.8 °C 16.6 °C 1012.4 hPa Calm     77 % 0.0 mm open2300-1.11 W/m2
01:10 20.3 °C 16.6 °C 1012.6 hPa Calm     79 % 0.0 mm open2300-1.11 W/m2
02:10 19.8 °C 16.7 °C 1012.6 hPa Calm     82 % 3.0 mm open2300-1.11 W/m2
03:10 19.4 °C 16.4 °C 1011.9 hPa Calm     83 % 0.0 mm open2300-1.11 W/m2
04:10 18.9 °C 16.1 °C 1012.0 hPa Calm     84 % 0.0 mm open2300-1.11 W/m2
05:10 18.6 °C 15.8 °C 1011.8 hPa Calm     84 % 0.0 mm open2300-1.11 W/m2
06:10 18.4 °C 15.6 °C 1012.0 hPa Calm     84 % 0.0 mm open2300-1.11 W/m2
07:10 18.6 °C 15.8 °C 1012.2 hPa Calm     84 % 0.0 mm open2300-1.11 W/m2
08:10 19.4 °C 16.4 °C 1012.5 hPa Calm   2.9 km/h 83 % 0.0 mm open2300-1.11 W/m2
09:10 19.6 °C 16.7 °C 1012.8 hPa Calm     83 % 0.0 mm open2300-1.11 W/m2
10:10 19.7 °C 16.6 °C 1013.1 hPa Calm     82 % 0.0 mm open2300-1.11 W/m2
11:10 19.6 °C 16.7 °C 1013.2 hPa SE 4.7 km/h 4.7 km/h 83 % 1.0 mm open2300-1.11 W/m2
12:10 20.6 °C 17.4 °C 1012.9 hPa Calm     82 % 0.0 mm open2300-1.11 W/m2
13:10 20.3 °C 17.3 °C 1013.1 hPa Calm     83 % 0.5 mm open2300-1.11 W/m2
14:10 19.6 °C 16.8 °C 1012.8 hPa SW 5.1 km/h 6.9 km/h 84 % 1.5 mm open2300-1.11 W/m2
15:10 19.4 °C 16.6 °C 1012.1 hPa Calm   1.8 km/h 84 % 0.5 mm open2300-1.11 W/m2
16:10 19.9 °C 17.1 °C 1011.8 hPa Calm     84 % 0.0 mm open2300-1.11 W/m2
17:10 19.8 °C 17.0 °C 1011.3 hPa Calm     84 % 0.5 mm open2300-1.11 W/m2
18:10 19.8 °C 17.2 °C 1011.4 hPa Calm     85 % 0.0 mm open2300-1.11 W/m2
19:10 19.8 °C 17.0 °C 1011.6 hPa Calm   3.4 km/h 84 % 0.0 mm open2300-1.11 W/m2
20:10 19.4 °C 16.6 °C 1011.4 hPa Calm     84 % 0.0 mm open2300-1.11 W/m2
21:10 19.1 °C 16.5 °C 1011.4 hPa Calm     85 % 0.0 mm open2300-1.11 W/m2
22:10 18.9 °C 16.5 °C 1011.7 hPa Calm     86 % 0.5 mm open2300-1.11 W/m2
23:10 18.8 °C 16.4 °C 1011.6 hPa Calm     86 % 0.0 mm open2300-1.11 W/m2
Observations météo à CASSIS
WU-History script by Weather Underground - 1 mb